createdAt,value
2018-10-21T00:02:21.134Z,72.40
2018-10-21T00:07:24.181Z,72.50
2018-10-21T00:12:27.285Z,72.50
2018-10-21T00:17:30.397Z,72.20
2018-10-21T00:22:33.504Z,72.40
2018-10-21T00:27:36.613Z,72.40
2018-10-21T00:32:45.030Z,72.30
2018-10-21T00:37:48.138Z,72.30
2018-10-21T00:42:51.238Z,72.20
2018-10-21T00:47:54.605Z,72.20
2018-10-21T00:52:57.713Z,72.40
2018-10-21T00:58:00.890Z,72.40
2018-10-21T01:03:04.001Z,72.40
2018-10-21T01:08:07.105Z,72.50
2018-10-21T01:13:10.233Z,72.70
2018-10-21T01:18:13.343Z,72.50
2018-10-21T01:23:16.442Z,72.60
2018-10-21T01:28:19.544Z,72.60
2018-10-21T01:33:22.644Z,72.60
2018-10-21T01:38:25.798Z,72.90
2018-10-21T01:43:30.901Z,72.90
2018-10-21T01:48:34.017Z,73.00
2018-10-21T01:53:37.116Z,72.70
2018-10-21T01:58:40.223Z,72.90
2018-10-21T02:03:43.336Z,72.80
2018-10-21T02:08:46.441Z,72.90
2018-10-21T02:13:49.577Z,72.90
2018-10-21T02:18:52.761Z,73.00
2018-10-21T02:23:55.865Z,73.80
2018-10-21T02:28:58.967Z,73.20
2018-10-21T02:34:02.080Z,73.90
2018-10-21T02:39:08.264Z,73.10
2018-10-21T02:44:12.544Z,73.00
2018-10-21T02:49:16.332Z,73.10
2018-10-21T02:54:23.617Z,72.80
2018-10-21T02:59:26.909Z,74.30
2018-10-21T03:04:30.016Z,74.10
2018-10-21T03:09:33.272Z,74.30
2018-10-21T03:14:36.375Z,74.10
2018-10-21T03:24:40.116Z,74.30
2018-10-21T03:29:43.292Z,74.60
2018-10-21T03:34:46.709Z,74.40
2018-10-21T03:39:49.817Z,75.00
2018-10-21T03:44:52.920Z,74.60
2018-10-21T03:49:56.045Z,74.50
2018-10-21T03:54:59.141Z,74.60
2018-10-21T04:00:02.232Z,74.60
2018-10-21T04:05:05.689Z,74.70
2018-10-21T04:10:08.847Z,74.40
2018-10-21T04:15:12.172Z,74.70
2018-10-21T04:20:15.281Z,74.90
2018-10-21T04:25:18.696Z,74.80
2018-10-21T04:30:23.829Z,74.80
2018-10-21T04:35:26.960Z,74.60
2018-10-21T04:40:30.048Z,75.30
2018-10-21T04:45:33.166Z,74.90
2018-10-21T04:50:36.520Z,74.60
2018-10-21T04:55:39.629Z,74.90
2018-10-21T05:00:42.907Z,74.40
2018-10-21T05:05:45.936Z,74.80
2018-10-21T05:10:49.051Z,74.50
2018-10-21T05:15:52.184Z,74.70
2018-10-21T05:20:55.289Z,74.70
2018-10-21T05:25:58.635Z,74.80
2018-10-21T05:31:01.998Z,74.60
2018-10-21T05:36:05.817Z,74.80
2018-10-21T05:41:08.928Z,74.70
2018-10-21T05:46:19.891Z,74.60
2018-10-21T05:51:22.988Z,74.80
2018-10-21T05:56:26.094Z,74.80
2018-10-21T06:01:29.188Z,75.00
2018-10-21T06:06:32.292Z,74.80
2018-10-21T06:11:35.465Z,74.70
2018-10-21T06:17:41.989Z,74.80
2018-10-21T06:22:46.225Z,74.60
2018-10-21T06:27:49.426Z,74.60
2018-10-21T06:32:52.436Z,74.50
2018-10-21T06:37:55.540Z,74.60
2018-10-21T06:42:58.643Z,74.80
2018-10-21T06:48:01.744Z,75.00
2018-10-21T06:53:05.824Z,74.90
2018-10-21T06:58:08.990Z,74.90
2018-10-21T07:03:12.124Z,74.60
2018-10-21T07:08:15.245Z,75.20
2018-10-21T07:13:18.346Z,74.30
2018-10-21T07:18:21.444Z,74.50
2018-10-21T07:23:24.553Z,74.30
2018-10-21T07:28:27.944Z,74.00
2018-10-21T07:33:30.965Z,74.20
2018-10-21T07:38:34.074Z,74.00
2018-10-21T07:43:37.184Z,72.90
2018-10-21T07:48:40.296Z,72.70
2018-10-21T07:53:43.449Z,72.20
2018-10-21T07:58:46.555Z,72.00
2018-10-21T08:03:49.720Z,72.10
2018-10-21T08:08:52.828Z,72.00
2018-10-21T08:13:55.932Z,72.00
2018-10-21T08:18:59.036Z,71.80
2018-10-21T08:24:02.152Z,71.80
2018-10-21T08:29:05.574Z,71.70
2018-10-21T08:34:08.714Z,71.70
2018-10-21T08:39:11.816Z,71.30
2018-10-21T08:44:14.928Z,70.40
2018-10-21T08:49:18.092Z,69.60
2018-10-21T08:54:21.148Z,69.50
2018-10-21T08:59:24.368Z,67.90
2018-10-21T09:04:27.540Z,67.10
2018-10-21T09:09:30.672Z,67.00
2018-10-21T09:14:33.800Z,64.80
2018-10-21T09:19:36.912Z,65.10
2018-10-21T09:24:40.026Z,64.20
2018-10-21T09:29:43.136Z,62.80
2018-10-21T09:34:46.277Z,61.60
2018-10-21T09:39:49.397Z,60.70
2018-10-21T09:44:52.508Z,60.90
2018-10-21T09:49:55.682Z,60.10
2018-10-21T09:54:58.744Z,60.30
2018-10-21T10:00:01.822Z,59.30
2018-10-21T10:05:05.742Z,59.70
2018-10-21T10:10:09.967Z,59.50
2018-10-21T10:15:13.005Z,61.10
2018-10-21T10:20:16.113Z,59.80
2018-10-21T10:25:19.316Z,60.30
2018-10-21T10:30:22.370Z,60.00
2018-10-21T10:35:25.421Z,58.70
2018-10-21T10:40:28.645Z,58.60
2018-10-21T10:45:31.734Z,58.90
2018-10-21T10:50:34.844Z,58.20
2018-10-21T10:55:43.233Z,59.00
2018-10-21T11:00:46.509Z,58.40
2018-10-21T11:05:49.625Z,56.80
2018-10-21T11:10:52.724Z,54.80
2018-10-21T11:15:55.827Z,55.60
2018-10-21T11:20:58.929Z,56.40
2018-10-21T11:26:02.424Z,56.20
2018-10-21T11:31:05.660Z,55.90
2018-10-21T11:36:08.764Z,54.60
2018-10-21T11:41:11.884Z,55.60
2018-10-21T11:46:15.119Z,55.10
2018-10-21T11:51:18.105Z,55.40
2018-10-21T11:56:21.216Z,55.20
2018-10-21T12:01:24.332Z,53.90
2018-10-21T12:06:27.445Z,54.30
2018-10-21T12:11:30.553Z,53.00
2018-10-21T12:16:33.666Z,53.50
2018-10-21T12:26:50.812Z,52.00
2018-10-21T12:31:53.922Z,50.60
2018-10-21T12:36:57.040Z,51.30
2018-10-21T12:42:00.148Z,50.90
2018-10-21T12:47:03.309Z,50.60
2018-10-21T12:52:06.487Z,51.10
2018-10-21T12:57:09.568Z,50.50
2018-10-21T13:02:12.748Z,48.80
2018-10-21T13:07:15.918Z,48.80
2018-10-21T13:12:18.913Z,50.80
2018-10-21T13:17:22.024Z,50.30
2018-10-21T13:22:25.138Z,49.80
2018-10-21T13:27:28.252Z,49.50
2018-10-21T13:32:31.357Z,50.40
2018-10-21T13:37:34.601Z,50.30
2018-10-21T13:42:37.725Z,49.40
2018-10-21T13:47:40.856Z,49.00
2018-10-21T13:52:44.067Z,49.10
2018-10-21T13:57:47.078Z,47.40
2018-10-21T14:02:50.189Z,48.90
2018-10-21T14:07:53.318Z,48.50
2018-10-21T14:12:56.471Z,48.80
2018-10-21T14:17:59.525Z,49.50
2018-10-21T14:23:02.628Z,49.80
2018-10-21T14:28:05.756Z,49.50
2018-10-21T14:33:08.915Z,50.10
2018-10-21T14:38:12.009Z,50.40
2018-10-21T14:43:15.091Z,49.50
2018-10-21T14:48:18.256Z,50.20
2018-10-21T14:53:21.308Z,49.70
2018-10-21T14:58:24.416Z,50.10
2018-10-21T15:03:27.603Z,50.40
2018-10-21T15:08:30.648Z,50.70
2018-10-21T15:13:33.772Z,50.90
2018-10-21T15:18:36.892Z,50.50
2018-10-21T15:23:40.005Z,50.80
2018-10-21T15:28:43.122Z,50.00
2018-10-21T15:33:46.233Z,50.20
2018-10-21T15:38:49.444Z,50.30
2018-10-21T15:43:52.553Z,50.10
2018-10-21T15:48:55.727Z,50.90
2018-10-21T15:53:58.908Z,50.70
2018-10-21T15:59:02.020Z,50.90
2018-10-21T16:04:05.970Z,51.10
2018-10-21T16:09:10.961Z,51.10
2018-10-21T16:14:14.079Z,51.10
2018-10-21T16:19:17.189Z,51.20
2018-10-21T16:24:20.300Z,50.90
2018-10-21T16:29:23.416Z,51.10
2018-10-21T16:34:26.536Z,51.30
2018-10-21T16:39:29.641Z,51.50
2018-10-21T16:44:32.765Z,51.90
2018-10-21T16:49:35.875Z,52.60
2018-10-21T16:54:39.358Z,53.10
2018-10-21T16:59:42.379Z,53.40
2018-10-21T17:04:45.623Z,53.50
2018-10-21T17:09:49.186Z,53.50
2018-10-21T17:14:51.948Z,53.60
2018-10-21T17:19:55.062Z,53.80
2018-10-21T17:24:58.170Z,54.10
2018-10-21T17:30:01.564Z,54.30
2018-10-21T17:35:06.414Z,54.50
2018-10-21T17:40:10.796Z,54.80
2018-10-21T17:45:14.632Z,54.90
2018-10-21T17:50:17.735Z,55.00
2018-10-21T17:55:20.855Z,55.10
2018-10-21T18:00:23.978Z,55.30
2018-10-21T18:05:27.089Z,55.40
2018-10-21T18:10:30.216Z,56.10
2018-10-21T18:15:33.336Z,55.80
2018-10-21T18:20:36.531Z,55.80
2018-10-21T18:25:39.582Z,55.80
2018-10-21T18:30:42.696Z,56.20
2018-10-21T18:35:45.809Z,56.30
2018-10-21T18:40:49.059Z,56.20
2018-10-21T18:45:52.062Z,56.30
2018-10-21T18:50:55.208Z,56.40
2018-10-21T18:55:58.329Z,56.50
2018-10-21T19:01:01.710Z,56.60
2018-10-21T19:06:05.731Z,56.70
2018-10-21T19:11:08.901Z,56.90
2018-10-21T19:16:12.048Z,56.90
2018-10-21T19:21:15.118Z,56.90
2018-10-21T19:26:18.288Z,57.10
2018-10-21T19:31:21.420Z,57.00
2018-10-21T19:36:24.521Z,58.10
2018-10-21T19:41:27.629Z,58.10
2018-10-21T19:46:30.739Z,58.20
2018-10-21T19:51:33.844Z,58.50
2018-10-21T19:56:36.940Z,58.50
2018-10-21T20:01:40.049Z,58.90
2018-10-21T20:06:43.163Z,58.90
2018-10-21T20:11:46.260Z,58.90
2018-10-21T20:16:49.371Z,59.10
2018-10-21T20:21:52.741Z,59.10
2018-10-21T20:26:55.844Z,59.30
2018-10-21T20:31:58.947Z,59.30
2018-10-21T20:37:02.052Z,59.50
2018-10-21T20:42:05.967Z,59.30
2018-10-21T20:47:09.013Z,59.40
2018-10-21T20:52:12.171Z,59.60
2018-10-21T20:57:15.668Z,60.00
2018-10-21T21:02:18.789Z,60.40
2018-10-21T21:07:21.895Z,60.30
2018-10-21T21:12:24.994Z,60.70
2018-10-21T21:17:28.363Z,60.80
2018-10-21T21:22:31.462Z,61.00
2018-10-21T21:27:34.721Z,61.30
2018-10-21T21:32:37.815Z,61.30
2018-10-21T21:37:40.924Z,61.40
2018-10-21T21:42:44.020Z,61.50
2018-10-21T21:47:47.123Z,61.70
2018-10-21T21:52:50.224Z,61.60
2018-10-21T21:57:53.326Z,62.00
2018-10-21T22:02:56.438Z,62.20
2018-10-21T22:07:59.536Z,62.70
2018-10-21T22:13:02.645Z,63.10
2018-10-21T22:18:05.878Z,63.10
2018-10-21T22:23:08.912Z,63.20
2018-10-21T22:28:12.306Z,63.20
2018-10-21T22:33:15.373Z,63.50
2018-10-21T22:38:18.751Z,63.80
2018-10-21T22:43:21.857Z,64.00
2018-10-21T22:48:24.960Z,64.30
2018-10-21T22:53:28.060Z,64.70
2018-10-21T22:58:31.177Z,65.00
2018-10-21T23:03:34.529Z,65.10
2018-10-21T23:08:37.622Z,64.90
2018-10-21T23:13:40.721Z,64.70
2018-10-21T23:18:43.896Z,64.70
2018-10-21T23:23:46.924Z,64.80
2018-10-21T23:28:50.040Z,64.70
2018-10-21T23:33:53.150Z,64.90
2018-10-21T23:38:56.441Z,65.20
2018-10-21T23:43:59.599Z,64.90
2018-10-21T23:49:02.906Z,64.90
2018-10-21T23:54:06.032Z,65.00
2018-10-21T23:59:10.077Z,64.90
